Главная страница
METAR-TAF:

METAR-TAF

Аэропорты :

Орадя, Румыния

широта: 47-03N, долгота: 021-56E, высота над уровнем моря: 135 м

Текущие метеонаблюдения

Эта сводка был подготовлена 44 минут назад, в 23:00 UTC
Ветер 4 Узел от южный
Температура 3°C
Влажность 70%
Давление 1030 hPa
Видимость 10 км и более

METAR: LROD 172300Z AUTO 17004KT 9999 OVC090/// 03/M02 Q1030

Время: 01:44 (23:44 UTC)

Прогноз

Эта сводка был подготовлена 6 часа и 44 минут назад, в 17:00 UTC
Прогноз действительный с 17-го 18 UTC до 18-го 03 UTC
Ветер 4 Узел переменных направлений
Видимость 10 км и более
Нет облачности ниже 1500 м, и нет кучево-дождевой облачности

TAF: LROD 171700Z 1718/1803 VRB04KT CAVOK

Метеонаблюдения и прогнозы для более 4000 аэропортов (сводки METAR и TAF).

Имеющиеся станции представлены на карте желтыми и красными точками.

Чтобы увидеть название станции, наведите на нее мышь.

Затем щелкните, чтобы увидеть метеонаблюдения и метеопрогнозы.

Управление картой: чтобы увеличить масштаб, щелкните зеленые кнопки с черным крестиком; чтобы уменьшить масштаб, щелкните зеленую кнопку с тире; для просмотра соседних карт щелкайте зеленые стрелки.


METAR-TAF: